Time;durP1;ratioP1;P1;durP2;ratioP2;P2;SDS_P1;SDS_P2;PMS_P1;PMS_P2;Temp;Humidity;BMP_temperature;BMP_pressure;BME280_temperature;BME280_humidity;BME280_pressure;Samples;Min_cycle;Max_cycle;Signal;HPM_P1;HPM_P2
2023/07/17 00:00:05;;;;;;;;;3.60;3.60;;;;;18.84;52.00;99818.75;5034638;28;8836;-58
2023/07/17 00:02:34;;;;;;;;;5.00;5.00;;;;;18.81;52.05;99827.16;5034844;28;8840;-59
2023/07/17 00:05:01;;;;;;;;;6.20;5.00;;;;;18.77;51.91;99825.00;5018411;28;8947;-58
2023/07/17 00:07:29;;;;;;;;;3.40;3.40;;;;;18.71;52.22;99821.16;5015786;28;8822;-58
2023/07/17 00:09:57;;;;;;;;;3.40;3.00;;;;;18.63;52.36;99821.19;5019503;28;8852;-59
2023/07/17 00:12:25;;;;;;;;;5.60;4.00;;;;;18.57;52.40;99821.03;5034071;28;8865;-59
2023/07/17 00:14:52;;;;;;;;;5.20;4.00;;;;;18.46;52.58;99825.00;5032645;28;8800;-59
2023/07/17 00:17:20;;;;;;;;;3.80;3.80;;;;;18.38;53.31;99816.91;5015307;28;8854;-59
2023/07/17 00:19:48;;;;;;;;;3.80;3.80;;;;;18.29;53.28;99817.09;5029746;28;8834;-58
2023/07/17 00:22:16;;;;;;;;;5.60;5.60;;;;;18.19;53.70;99819.13;5014549;28;8964;-59
2023/07/17 00:24:44;;;;;;;;;6.60;6.00;;;;;18.10;53.62;99804.00;5014683;28;8957;-59
2023/07/17 00:27:12;;;;;;;;;3.20;3.20;;;;;18.04;53.58;99812.78;5015261;28;8860;-58
2023/07/17 00:29:40;;;;;;;;;4.40;4.40;;;;;18.00;53.82;99809.59;5028845;28;8828;-59
2023/07/17 00:32:08;;;;;;;;;6.20;4.40;;;;;17.93;53.81;99807.75;5034442;28;8860;-59
2023/07/17 00:34:35;;;;;;;;;3.60;3.60;;;;;17.90;54.07;99808.94;5034019;28;8844;-58
2023/07/17 00:37:03;;;;;;;;;4.00;4.00;;;;;17.88;54.05;99818.22;5034422;28;8835;-59
2023/07/17 00:39:31;;;;;;;;;4.00;3.60;;;;;17.83;53.88;99813.34;5031022;28;8942;-59
2023/07/17 00:41:59;;;;;;;;;3.00;3.00;;;;;17.81;54.20;99818.06;5034934;28;8820;-59
2023/07/17 00:44:27;;;;;;;;;3.20;3.20;;;;;17.77;54.05;99816.69;5033232;28;8863;-58
2023/07/17 00:46:55;;;;;;;;;6.00;5.60;;;;;17.74;53.92;99817.06;5029793;28;8830;-59
2023/07/17 00:49:23;;;;;;;;;4.00;3.20;;;;;17.72;53.90;99829.00;5031382;28;8831;-59
2023/07/17 00:51:51;;;;;;;;;6.20;6.00;;;;;17.76;53.89;99830.38;5033333;28;8927;-59
2023/07/17 00:54:18;;;;;;;;;4.00;4.00;;;;;17.82;53.73;99852.06;5021104;28;8829;-58
2023/07/17 00:56:46;;;;;;;;;3.00;1.40;;;;;17.89;53.73;99847.69;5013686;28;8830;-58
2023/07/17 00:59:14;;;;;;;;;1.80;1.80;;;;;17.99;53.49;99861.81;5029506;28;8812;-58
2023/07/17 01:01:42;;;;;;;;;0.80;0.80;;;;;18.06;53.35;99861.97;5033375;28;8812;-58
2023/07/17 01:04:09;;;;;;;;;3.60;3.60;;;;;18.07;52.91;99856.41;5026522;28;8834;-59
2023/07/17 01:06:38;;;;;;;;;3.60;3.60;;;;;18.08;53.54;99858.06;5013366;28;8868;-59
2023/07/17 01:09:07;;;;;;;;;6.40;4.80;;;;;18.09;53.39;99854.41;5013839;28;8833;-59
2023/07/17 01:11:35;;;;;;;;;3.20;2.20;;;;;18.11;53.31;99863.16;5028117;28;9489;-57
2023/07/17 01:14:03;;;;;;;;;3.20;3.20;;;;;18.14;53.45;99865.47;5019013;28;8849;-58
2023/07/17 01:16:30;;;;;;;;;3.00;3.00;;;;;18.20;53.66;99875.59;5021484;28;8837;-57
2023/07/17 01:18:58;;;;;;;;;4.00;4.00;;;;;18.27;53.29;99883.81;5033106;28;8848;-59
2023/07/17 01:21:26;;;;;;;;;3.00;3.00;;;;;18.32;52.51;99876.94;5033781;28;8812;-58
2023/07/17 01:23:56;;;;;;;;;4.40;4.40;;;;;18.37;52.83;99874.56;5033408;28;8833;-59
2023/07/17 01:26:24;;;;;;;;;5.60;4.00;;;;;18.41;52.83;99865.13;5033894;28;8824;-59
2023/07/17 01:28:52;;;;;;;;;4.00;3.20;;;;;18.42;52.49;99879.44;5033676;28;8858;-59
2023/07/17 01:31:20;;;;;;;;;3.60;3.00;;;;;18.43;52.84;99873.88;5033753;28;8832;-59
2023/07/17 01:33:48;;;;;;;;;5.20;5.20;;;;;18.47;52.73;99877.91;5033276;28;8828;-59
2023/07/17 01:36:16;;;;;;;;;4.00;4.00;;;;;18.51;52.87;99890.03;5033155;28;8873;-59
2023/07/17 01:38:44;;;;;;;;;4.80;4.40;;;;;18.56;52.77;99894.91;5032815;28;8858;-58
2023/07/17 01:41:12;;;;;;;;;2.20;2.20;;;;;18.58;52.52;99885.63;5033145;28;8832;-59
2023/07/17 01:43:39;;;;;;;;;6.20;5.60;;;;;18.61;52.57;99871.78;5033695;28;8969;-58
2023/07/17 01:46:07;;;;;;;;;3.60;3.60;;;;;18.64;52.78;99884.94;5033066;28;8848;-58
2023/07/17 01:48:35;;;;;;;;;4.00;4.00;;;;;18.66;52.86;99873.97;5033322;28;8824;-58
2023/07/17 01:51:03;;;;;;;;;5.20;3.00;;;;;18.66;52.25;99888.28;5017134;28;9645;-58
2023/07/17 01:53:31;;;;;;;;;4.40;4.00;;;;;18.66;52.69;99892.84;5015938;28;8826;-59
2023/07/17 01:55:59;;;;;;;;;1.00;1.00;;;;;18.64;52.71;99893.03;5033063;28;8823;-58
2023/07/17 01:58:27;;;;;;;;;6.20;3.80;;;;;18.62;53.22;99894.22;5024225;28;8821;-58
2023/07/17 02:00:56;;;;;;;;;4.00;4.00;;;;;18.60;53.29;99905.16;5014436;28;8835;-59
2023/07/17 02:03:24;;;;;;;;;4.60;4.20;;;;;18.60;53.03;99901.63;5013325;28;8960;-59
2023/07/17 02:05:51;;;;;;;;;3.20;3.00;;;;;18.60;52.83;99904.34;5013396;28;9488;-58
2023/07/17 02:08:19;;;;;;;;;4.00;3.00;;;;;18.59;53.30;99916.16;5020197;28;8844;-59
2023/07/17 02:10:47;;;;;;;;;6.60;6.00;;;;;18.57;53.81;99927.09;5033156;28;8831;-58
2023/07/17 02:13:16;;;;;;;;;3.00;3.00;;;;;18.51;53.61;99922.38;5032824;28;8871;-58
2023/07/17 02:15:44;;;;;;;;;6.00;3.40;;;;;18.40;53.68;99909.28;5030746;28;8832;-56
2023/07/17 02:18:12;;;;;;;;;3.80;3.60;;;;;18.28;54.16;99913.31;5025486;28;8822;-59
2023/07/17 02:20:39;;;;;;;;;3.00;2.20;;;;;18.19;54.70;99922.44;5016065;28;8854;-59
2023/07/17 02:23:07;;;;;;;;;3.60;3.60;;;;;18.13;54.66;99923.09;5016189;28;8837;-58
2023/07/17 02:25:35;;;;;;;;;1.00;1.00;;;;;18.10;54.75;99911.81;5017314;28;8837;-59
2023/07/17 02:28:03;;;;;;;;;5.60;4.80;;;;;18.07;54.94;99912.19;5021310;28;8804;-58
2023/07/17 02:30:31;;;;;;;;;4.00;3.40;;;;;18.06;54.82;99930.19;5035890;28;8804;-59
2023/07/17 02:32:58;;;;;;;;;6.00;6.00;;;;;18.04;55.33;99929.53;5034977;28;9517;-58
2023/07/17 02:35:26;;;;;;;;;3.00;3.00;;;;;18.01;56.02;99927.19;5035595;28;8828;-59
2023/07/17 02:37:54;;;;;;;;;4.00;4.00;;;;;18.02;55.37;99917.22;5032269;28;9506;-58
2023/07/17 02:40:22;;;;;;;;;3.40;2.60;;;;;18.01;55.85;99924.50;5017600;28;8806;-59
2023/07/17 02:42:50;;;;;;;;;5.60;5.60;;;;;18.01;55.45;99916.41;5017030;28;8866;-58
2023/07/17 02:45:17;;;;;;;;;1.40;1.00;;;;;18.01;55.39;99923.63;5016240;28;8898;-57
2023/07/17 02:47:45;;;;;;;;;6.00;4.00;;;;;18.00;55.42;99922.78;5022889;28;9533;-59
2023/07/17 02:50:13;;;;;;;;;2.60;2.60;;;;;17.97;55.79;99931.22;5015959;28;8818;-58
2023/07/17 02:52:41;;;;;;;;;3.00;3.00;;;;;17.94;55.91;99928.88;5031929;28;8935;-59
2023/07/17 02:55:08;;;;;;;;;4.80;4.40;;;;;17.89;56.02;99928.53;5032336;28;8816;-59
2023/07/17 02:57:36;;;;;;;;;3.00;3.00;;;;;17.85;56.22;99927.16;5015675;28;8848;-58
2023/07/17 03:00:08;;;;;;;;;4.00;4.00;;;;;17.82;56.63;99913.19;5035559;28;8800;-58
2023/07/17 03:02:36;;;;;;;;;3.00;3.00;;;;;17.80;56.55;99910.69;5035388;28;8934;-57
2023/07/17 03:05:08;;;;;;;;;4.00;4.00;;;;;17.79;56.37;99914.38;5033545;28;8862;-58
2023/07/17 03:07:36;;;;;;;;;3.00;3.00;;;;;17.78;56.55;99915.38;5035545;28;8828;-57
2023/07/17 03:10:03;;;;;;;;;2.60;1.00;;;;;17.79;56.65;99917.09;5019036;28;8806;-58
2023/07/17 03:12:31;;;;;;;;;2.60;1.80;;;;;17.79;56.77;99922.47;5015697;28;8977;-58
2023/07/17 03:14:59;;;;;;;;;3.80;3.00;;;;;17.80;56.39;99929.53;5015887;28;8834;-56
2023/07/17 03:17:26;;;;;;;;;3.00;3.00;;;;;17.82;56.29;99926.66;5015851;28;8847;-58
2023/07/17 03:19:54;;;;;;;;;4.00;3.00;;;;;17.81;57.25;99923.13;5022737;28;8836;-59
2023/07/17 03:22:22;;;;;;;;;1.00;1.00;;;;;17.76;56.57;99898.53;5035501;28;8851;-58
2023/07/17 03:24:49;;;;;;;;;3.00;1.00;;;;;17.70;56.95;99907.28;5035458;28;8832;-58
2023/07/17 03:27:17;;;;;;;;;2.20;1.80;;;;;17.62;57.62;99901.91;5035328;28;8847;-58
2023/07/17 03:29:45;;;;;;;;;3.00;1.00;;;;;17.57;57.23;99912.34;5035437;28;8831;-59
2023/07/17 03:32:12;;;;;;;;;0.00;0.00;;;;;17.55;57.71;99922.44;5034589;28;8828;-59
2023/07/17 03:34:40;;;;;;;;;0.40;0.20;;;;;17.52;58.27;99928.16;5035460;28;8858;-58
2023/07/17 03:37:07;;;;;;;;;1.00;1.00;;;;;17.49;58.31;99939.28;5035042;28;8866;-59
2023/07/17 03:39:37;;;;;;;;;0.20;0.20;;;;;17.48;58.39;99928.66;5034304;28;8847;-59
2023/07/17 03:42:10;;;;;;;;;0.80;0.80;;;;;17.46;58.31;99939.59;5035844;28;8828;-58
2023/07/17 03:44:38;;;;;;;;;1.40;1.40;;;;;17.45;58.84;99929.00;5035384;28;8827;-56
2023/07/17 03:47:05;;;;;;;;;0.20;0.20;;;;;17.44;58.34;99930.84;5034764;28;8866;-58
2023/07/17 03:49:33;;;;;;;;;1.00;1.00;;;;;17.44;58.39;99930.84;5034908;28;8824;-58
2023/07/17 03:52:01;;;;;;;;;1.80;1.80;;;;;17.45;58.22;99931.69;5034625;28;8824;-58
2023/07/17 03:54:29;;;;;;;;;0.80;0.80;;;;;17.43;58.05;99939.06;5034478;28;9520;-58
2023/07/17 03:56:56;;;;;;;;;3.00;2.20;;;;;17.42;58.56;99940.94;5034296;28;8966;-57
2023/07/17 03:59:24;;;;;;;;;3.00;3.00;;;;;17.42;58.13;99953.53;5033406;28;8816;-58
2023/07/17 04:01:52;;;;;;;;;0.80;0.80;;;;;17.44;58.04;99943.44;5033872;28;8830;-58
2023/07/17 04:04:21;;;;;;;;;1.00;1.00;;;;;17.43;58.49;99949.84;5034000;28;8854;-57
2023/07/17 04:06:49;;;;;;;;;1.00;1.00;;;;;17.44;58.35;99951.53;5029056;28;9026;-56
2023/07/17 04:09:16;;;;;;;;;0.40;0.40;;;;;17.39;58.45;99948.50;5025917;28;8832;-58
2023/07/17 04:11:46;;;;;;;;;1.00;0.40;;;;;17.36;58.33;99948.78;5034298;28;8820;-59
2023/07/17 04:14:14;;;;;;;;;1.00;1.00;;;;;17.32;58.92;99944.75;5034334;28;8905;-59
2023/07/17 04:16:42;;;;;;;;;0.80;0.20;;;;;17.29;58.93;99948.63;5034086;28;8851;-58
2023/07/17 04:19:10;;;;;;;;;0.40;0.40;;;;;17.27;58.75;99939.00;5024811;28;9515;-59
2023/07/17 04:21:38;;;;;;;;;1.00;1.00;;;;;17.23;58.67;99949.25;5014203;28;9510;-60
2023/07/17 04:24:06;;;;;;;;;1.00;1.00;;;;;17.21;58.93;99950.44;5020353;28;8820;-59
2023/07/17 04:26:34;;;;;;;;;3.00;1.00;;;;;17.17;59.08;99957.16;5033414;28;8835;-58
2023/07/17 04:29:02;;;;;;;;;1.00;1.00;;;;;17.14;59.39;99955.63;5032309;28;8836;-57
2023/07/17 04:31:30;;;;;;;;;1.40;1.40;;;;;17.13;59.43;99958.47;5033606;28;8816;-58
2023/07/17 04:33:58;;;;;;;;;3.40;3.40;;;;;17.10;59.58;99965.03;5033386;28;8828;-59
2023/07/17 04:36:26;;;;;;;;;1.00;1.00;;;;;17.11;58.90;99972.13;5032826;28;8852;-59
2023/07/17 04:38:53;;;;;;;;;0.20;0.00;;;;;17.13;59.11;99975.47;5020396;28;8836;-58
2023/07/17 04:41:21;;;;;;;;;2.60;2.60;;;;;17.18;58.69;99985.75;5033877;28;8850;-58
2023/07/17 04:43:49;;;;;;;;;1.00;0.40;;;;;17.23;58.80;99981.56;5031692;28;8882;-59
2023/07/17 04:46:17;;;;;;;;;1.00;1.00;;;;;17.29;59.02;99993.50;5033616;28;8858;-58
2023/07/17 04:48:45;;;;;;;;;1.00;1.00;;;;;17.33;58.49;99993.03;5028261;28;8830;-59
2023/07/17 04:51:12;;;;;;;;;0.60;0.60;;;;;17.38;58.42;99990.72;5013606;28;8852;-58
2023/07/17 04:53:40;;;;;;;;;3.00;3.00;;;;;17.43;58.75;99993.78;5013734;28;8822;-58
2023/07/17 04:56:08;;;;;;;;;4.00;3.20;;;;;17.49;58.23;99984.19;5025583;28;8816;-58
2023/07/17 04:58:36;;;;;;;;;1.80;1.00;;;;;17.54;58.13;99989.94;5026363;28;8812;-58
2023/07/17 05:01:03;;;;;;;;;1.00;1.00;;;;;17.56;58.42;99988.78;5033098;28;8828;-59
2023/07/17 05:03:31;;;;;;;;;1.00;1.00;;;;;17.62;58.03;99988.09;5032430;28;8840;-58
2023/07/17 05:06:00;;;;;;;;;2.20;1.80;;;;;17.68;58.13;99997.38;5014129;28;8830;-56
2023/07/17 05:08:28;;;;;;;;;1.00;1.00;;;;;17.73;58.05;99989.63;5020135;28;8971;-58
2023/07/17 05:10:55;;;;;;;;;0.80;0.80;;;;;17.77;57.79;99991.81;5033373;28;8813;-56
2023/07/17 05:13:23;;;;;;;;;1.00;1.00;;;;;17.82;58.16;99992.16;5025770;28;8920;-56
2023/07/17 05:15:51;;;;;;;;;1.80;1.00;;;;;17.87;57.92;99997.06;5012899;28;8840;-57
2023/07/17 05:18:18;;;;;;;;;1.00;1.00;;;;;17.93;57.54;100002.59;5015731;28;8937;-56
2023/07/17 05:20:46;;;;;;;;;1.00;1.00;;;;;18.00;57.62;100010.88;5033167;28;8828;-58
2023/07/17 05:23:14;;;;;;;;;3.60;3.60;;;;;18.06;57.78;100007.53;5032868;28;8868;-58
2023/07/17 05:25:42;;;;;;;;;1.40;1.40;;;;;18.10;57.72;100007.03;5031358;28;8839;-58
2023/07/17 05:28:09;;;;;;;;;1.00;1.00;;;;;18.14;57.75;100010.22;5031601;28;8878;-58
2023/07/17 05:30:37;;;;;;;;;1.00;1.00;;;;;18.20;57.43;100014.91;5031451;28;8840;-59
2023/07/17 05:33:05;;;;;;;;;1.00;1.00;;;;;18.23;57.43;100001.94;5032763;28;8852;-58
2023/07/17 05:35:33;;;;;;;;;1.00;1.00;;;;;18.29;57.14;99998.56;5032553;28;8904;-59
2023/07/17 05:38:01;;;;;;;;;0.80;0.80;;;;;18.36;57.72;100004.19;5032379;28;8836;-60
2023/07/17 05:40:29;;;;;;;;;0.60;0.60;;;;;18.40;57.12;100006.38;5032561;28;8835;-58
2023/07/17 05:42:58;;;;;;;;;1.00;1.00;;;;;18.45;57.34;100020.16;5033057;28;8832;-58
2023/07/17 05:45:26;;;;;;;;;0.00;0.00;;;;;18.50;57.53;100017.81;5032161;28;9490;-58
2023/07/17 05:47:54;;;;;;;;;1.00;1.00;;;;;18.54;57.39;100021.88;5032932;28;8847;-56
2023/07/17 05:50:22;;;;;;;;;2.20;2.20;;;;;18.57;56.97;100028.75;5032216;28;8840;-59
2023/07/17 05:52:50;;;;;;;;;3.00;2.60;;;;;18.58;57.24;100028.59;5032160;28;9660;-56
2023/07/17 05:55:19;;;;;;;;;1.00;1.00;;;;;18.60;57.59;100029.25;5032339;28;9521;-59
2023/07/17 05:57:46;;;;;;;;;2.20;2.20;;;;;18.64;57.04;100024.38;5022245;28;8853;-59
2023/07/17 06:00:14;;;;;;;;;1.40;1.40;;;;;18.69;57.25;100024.69;5015807;28;8818;-57
2023/07/17 06:02:43;;;;;;;;;1.00;1.00;;;;;18.73;57.13;100024.19;5012607;28;8838;-59
2023/07/17 06:05:11;;;;;;;;;1.80;1.80;;;;;18.77;57.00;100030.94;5012154;28;8823;-59
2023/07/17 06:07:39;;;;;;;;;1.00;1.00;;;;;18.83;57.11;100035.63;5012235;28;8842;-59
2023/07/17 06:10:07;;;;;;;;;1.00;1.00;;;;;18.86;56.84;100026.34;5026858;28;8866;-59
2023/07/17 06:12:35;;;;;;;;;1.00;1.00;;;;;18.91;56.76;100035.59;5032204;28;8936;-57
2023/07/17 06:15:03;;;;;;;;;1.00;1.00;;;;;18.97;56.21;100040.31;5031670;28;8808;-58
2023/07/17 06:17:31;;;;;;;;;2.60;2.20;;;;;19.06;56.13;100046.53;5031562;28;8878;-57
2023/07/17 06:19:59;;;;;;;;;1.00;1.00;;;;;19.15;56.35;100045.50;5021850;28;8826;-57
2023/07/17 06:22:27;;;;;;;;;2.20;1.00;;;;;19.25;56.17;100046.16;5012164;28;9551;-57
2023/07/17 06:24:54;;;;;;;;;2.00;1.20;;;;;19.33;55.94;100049.69;5012498;28;9521;-56
2023/07/17 06:27:22;;;;;;;;;3.40;3.40;;;;;19.39;55.43;100045.44;5013176;28;8814;-59
2023/07/17 06:29:50;;;;;;;;;1.00;1.00;;;;;19.43;55.42;100046.78;5023883;28;8848;-57
2023/07/17 06:32:18;;;;;;;;;4.80;4.00;;;;;19.46;55.70;100049.97;5032022;28;8946;-59
2023/07/17 06:34:47;;;;;;;;;3.40;2.80;;;;;19.49;55.41;100046.91;5031236;28;8970;-58
2023/07/17 06:37:15;;;;;;;;;1.80;1.00;;;;;19.54;55.15;100049.94;5031197;28;8931;-57
2023/07/17 06:39:42;;;;;;;;;3.00;1.80;;;;;19.58;55.30;100059.34;5029385;28;8869;-57
2023/07/17 06:42:10;;;;;;;;;1.60;1.00;;;;;19.64;54.92;100060.53;5031411;28;8839;-56
2023/07/17 06:44:38;;;;;;;;;2.80;2.80;;;;;19.68;54.80;100057.28;5031074;28;8838;-59
2023/07/17 06:47:06;;;;;;;;;3.40;1.80;;;;;19.75;54.74;100065.53;5031313;28;8998;-59
2023/07/17 06:49:51;;;;;;;;;3.60;3.60;;;;;19.85;54.57;100067.00;5019996;28;8844;-58
2023/07/17 06:52:19;;;;;;;;;3.00;3.00;;;;;19.92;54.45;100057.16;5012004;28;8927;-57
2023/07/17 06:54:47;;;;;;;;;2.00;1.60;;;;;20.02;54.03;100073.97;5023630;28;8820;-57
2023/07/17 06:57:31;;;;;;;;;2.20;2.20;;;;;20.08;54.07;100062.47;5030190;28;8892;-58
2023/07/17 06:59:59;;;;;;;;;2.20;2.20;;;;;20.15;54.05;100070.69;5018848;28;8849;-57
2023/07/17 07:02:27;;;;;;;;;2.40;2.20;;;;;20.18;53.81;100067.66;5012093;28;8972;-57
2023/07/17 07:04:55;;;;;;;;;2.40;2.00;;;;;20.16;53.76;100070.53;5012978;28;8834;-59
2023/07/17 07:07:23;;;;;;;;;1.40;1.40;;;;;20.15;53.87;100063.44;5013107;28;8918;-59
2023/07/17 07:09:51;;;;;;;;;4.00;3.00;;;;;20.19;53.90;100063.94;5026775;28;8816;-58
2023/07/17 07:12:19;;;;;;;;;0.80;0.80;;;;;20.18;53.65;100065.78;5035290;28;8843;-59
2023/07/17 07:14:46;;;;;;;;;4.00;3.60;;;;;20.21;53.70;100068.16;5034316;28;8836;-59
2023/07/17 07:17:14;;;;;;;;;2.80;2.80;;;;;20.27;53.44;100069.28;5022907;28;8864;-58
2023/07/17 07:19:43;;;;;;;;;2.80;2.80;;;;;20.32;53.53;100069.59;5035143;28;8832;-58
2023/07/17 07:22:10;;;;;;;;;2.00;1.60;;;;;20.40;52.99;100070.34;5034440;28;8936;-58
2023/07/17 07:24:41;;;;;;;;;4.00;2.00;;;;;20.49;52.88;100074.66;5034963;28;9640;-57
2023/07/17 07:27:09;;;;;;;;;2.80;2.80;;;;;20.58;53.15;100076.31;5034054;28;8854;-57
2023/07/17 07:29:37;;;;;;;;;2.00;2.00;;;;;20.67;52.98;100071.63;5034176;28;8978;-56
2023/07/17 07:32:05;;;;;;;;;4.00;4.00;;;;;20.71;52.40;100075.69;5034695;28;8832;-59
2023/07/17 07:34:37;;;;;;;;;4.20;4.00;;;;;20.74;52.30;100092.41;5033808;28;8824;-59
2023/07/17 07:37:05;;;;;;;;;4.00;4.00;;;;;20.75;52.35;100088.66;5033884;28;8844;-59
2023/07/17 07:39:33;;;;;;;;;4.00;3.20;;;;;20.73;52.11;100091.53;5033663;28;8928;-57
2023/07/17 07:42:05;;;;;;;;;0.20;0.00;;;;;20.72;51.85;100080.91;5033913;28;8926;-58
2023/07/17 07:44:33;;;;;;;;;2.00;2.00;;;;;20.79;52.37;100089.97;5034035;28;8839;-59
2023/07/17 07:47:01;;;;;;;;;4.00;2.00;;;;;20.81;52.00;100088.75;5033927;28;8902;-59
2023/07/17 07:49:29;;;;;;;;;2.00;2.00;;;;;20.81;52.29;100096.88;5033345;28;8945;-59
2023/07/17 07:51:57;;;;;;;;;4.00;4.00;;;;;20.84;51.81;100087.56;5032581;28;8862;-58
2023/07/17 07:54:25;;;;;;;;;4.00;2.00;;;;;20.88;51.67;100097.03;5033018;28;8835;-59
2023/07/17 07:56:53;;;;;;;;;5.20;4.60;;;;;20.92;51.92;100095.63;5033058;28;8843;-60
2023/07/17 07:59:21;;;;;;;;;5.00;4.00;;;;;20.97;51.41;100099.47;5033190;28;8925;-58
2023/07/17 08:01:49;;;;;;;;;4.20;2.40;;;;;21.05;51.23;100098.56;5033011;28;8832;-58
2023/07/17 08:04:17;;;;;;;;;4.80;3.60;;;;;21.10;51.77;100091.56;5015827;28;8818;-59
2023/07/17 08:06:46;;;;;;;;;2.80;2.00;;;;;21.12;51.24;100096.78;5015153;28;8826;-59
2023/07/17 08:09:14;;;;;;;;;4.60;4.00;;;;;21.12;50.87;100094.09;5013799;28;8858;-58
2023/07/17 08:11:43;;;;;;;;;2.40;2.40;;;;;21.14;51.23;100095.59;5030962;28;8840;-59
2023/07/17 08:14:11;;;;;;;;;4.20;2.40;;;;;21.19;50.83;100087.72;5033924;28;8831;-57
2023/07/17 08:16:39;;;;;;;;;8.00;4.80;;;;;21.32;50.71;100093.34;5033275;28;8840;-59
2023/07/17 08:19:07;;;;;;;;;4.40;3.20;;;;;21.40;50.46;100089.72;5014297;28;9875;-57
2023/07/17 08:21:35;;;;;;;;;4.00;4.00;;;;;21.47;50.37;100090.63;5026044;28;8819;-57
2023/07/17 08:24:03;;;;;;;;;1.40;1.40;;;;;21.53;49.93;100098.84;5013737;28;8850;-59
2023/07/17 08:26:32;;;;;;;;;0.60;0.40;;;;;21.57;50.43;100094.72;5013274;28;8818;-57
2023/07/17 08:29:00;;;;;;;;;5.00;5.00;;;;;21.58;49.99;100085.59;5013876;28;8854;-57
2023/07/17 08:31:29;;;;;;;;;7.00;4.00;;;;;21.64;49.77;100092.13;5017477;28;8858;-58
2023/07/17 08:33:57;;;;;;;;;4.20;4.00;;;;;21.67;49.73;100102.59;5029912;28;9586;-58
2023/07/17 08:36:26;;;;;;;;;4.40;3.60;;;;;21.67;49.48;100094.47;5033202;28;8982;-59
2023/07/17 08:38:54;;;;;;;;;2.80;2.40;;;;;21.73;49.01;100104.56;5033169;28;8867;-59
2023/07/17 08:41:24;;;;;;;;;3.20;3.20;;;;;21.77;49.59;100101.28;5032243;28;9590;-58
2023/07/17 08:43:52;;;;;;;;;4.60;3.20;;;;;21.86;48.73;100091.19;5023968;28;8926;-59
2023/07/17 08:46:20;;;;;;;;;5.80;4.60;;;;;22.00;48.98;100101.97;5014307;28;8862;-59
2023/07/17 08:48:48;;;;;;;;;2.80;2.00;;;;;22.21;48.63;100101.16;5013307;28;8858;-58
2023/07/17 08:51:16;;;;;;;;;3.20;2.40;;;;;22.35;48.50;100103.84;5013312;28;8842;-58
2023/07/17 08:53:44;;;;;;;;;4.00;2.40;;;;;22.54;47.92;100105.94;5021001;28;8812;-59
2023/07/17 08:56:12;;;;;;;;;4.00;4.00;;;;;22.63;47.38;100107.47;5032896;28;8899;-59
2023/07/17 08:58:41;;;;;;;;;4.00;2.80;;;;;22.62;47.88;100104.97;5028744;28;8820;-57
2023/07/17 09:01:09;;;;;;;;;4.00;4.00;;;;;22.59;47.80;100099.91;5031646;28;8835;-59
2023/07/17 09:03:37;;;;;;;;;4.40;4.20;;;;;22.62;47.25;100102.25;5028319;28;8892;-58
2023/07/17 09:06:05;;;;;;;;;4.40;4.00;;;;;22.63;47.63;100101.22;5017226;28;8848;-59
2023/07/17 09:08:33;;;;;;;;;4.20;4.00;;;;;22.77;47.68;100103.03;5012837;28;8907;-59
2023/07/17 09:11:02;;;;;;;;;4.40;2.80;;;;;22.89;46.96;100091.44;5012780;28;8858;-59
2023/07/17 09:13:30;;;;;;;;;1.00;0.40;;;;;22.99;46.60;100099.25;5013383;28;8814;-59
2023/07/17 09:15:58;;;;;;;;;2.00;2.00;;;;;23.03;47.24;100093.22;5032559;28;8840;-59
2023/07/17 09:18:27;;;;;;;;;5.40;4.40;;;;;23.11;46.98;100094.91;5020810;28;8847;-59
2023/07/17 09:20:55;;;;;;;;;4.20;2.40;;;;;23.23;46.21;100093.38;5030536;28;8832;-59
2023/07/17 09:23:23;;;;;;;;;3.00;3.00;;;;;23.26;46.65;100098.41;5031757;28;8832;-59
2023/07/17 09:25:54;;;;;;;;;3.60;2.00;;;;;23.35;46.24;100099.91;5032659;28;9002;-59
2023/07/17 09:28:22;;;;;;;;;5.00;2.00;;;;;23.50;46.09;100106.06;5032475;28;9094;-59
2023/07/17 09:30:50;;;;;;;;;4.80;3.60;;;;;23.67;46.05;100104.72;5031678;28;8828;-58
2023/07/17 09:33:22;;;;;;;;;3.20;2.40;;;;;23.83;45.27;100104.38;5032829;28;8851;-59
2023/07/17 09:35:51;;;;;;;;;4.00;2.00;;;;;23.89;45.13;100106.34;5032076;28;8828;-58
2023/07/17 09:38:19;;;;;;;;;5.80;4.80;;;;;23.97;44.76;100115.13;5032261;28;8982;-59
2023/07/17 09:40:47;;;;;;;;;4.00;4.00;;;;;24.06;44.99;100103.03;5032034;28;8831;-58
2023/07/17 09:43:15;;;;;;;;;3.80;3.20;;;;;24.05;44.98;100105.97;5032025;28;8862;-59
2023/07/17 09:45:43;;;;;;;;;4.00;4.00;;;;;24.16;44.90;100108.09;5031874;28;8840;-58
2023/07/17 09:48:13;;;;;;;;;4.00;3.80;;;;;24.17;44.58;100104.31;5030989;28;8844;-59
2023/07/17 09:50:42;;;;;;;;;2.40;2.00;;;;;24.19;44.73;100115.88;5032004;28;9535;-59
2023/07/17 09:53:09;;;;;;;;;4.00;3.20;;;;;24.19;44.65;100113.13;5032005;28;8901;-59
2023/07/17 09:55:38;;;;;;;;;4.40;4.40;;;;;24.05;44.98;100114.97;5031752;28;9529;-59
2023/07/17 09:58:06;;;;;;;;;2.80;1.80;;;;;23.87;44.72;100124.72;5030797;28;8839;-59
2023/07/17 10:00:34;;;;;;;;;5.00;5.00;;;;;23.69;45.35;100121.69;5031353;28;8846;-59
2023/07/17 10:03:02;;;;;;;;;3.80;3.80;;;;;23.82;45.07;100121.75;5025494;28;8826;-59
2023/07/17 10:05:31;;;;;;;;;4.20;3.80;;;;;24.21;44.35;100113.75;5012930;28;8822;-58
2023/07/17 10:07:58;;;;;;;;;5.00;4.80;;;;;24.61;43.63;100110.09;5013583;28;8826;-57
2023/07/17 10:10:26;;;;;;;;;5.00;3.20;;;;;24.63;43.39;100121.63;5011662;28;8818;-57
2023/07/17 10:12:55;;;;;;;;;3.20;2.40;;;;;24.55;44.08;100113.63;5021889;28;8828;-58
2023/07/17 10:15:23;;;;;;;;;5.40;2.60;;;;;24.23;44.14;100120.69;5027781;28;8840;-57
2023/07/17 10:17:51;;;;;;;;;3.00;2.00;;;;;23.96;44.75;100115.38;5030220;28;8864;-60
2023/07/17 10:20:20;;;;;;;;;2.00;1.00;;;;;23.74;45.32;100127.38;5031572;28;8827;-59
2023/07/17 10:22:48;;;;;;;;;2.80;2.00;;;;;23.53;45.75;100138.31;5016988;28;8826;-59
2023/07/17 10:25:16;;;;;;;;;3.80;3.80;;;;;23.38;45.64;100124.84;5030531;28;9598;-58
2023/07/17 10:27:43;;;;;;;;;4.20;4.20;;;;;23.52;45.67;100125.78;5030782;28;8844;-59
2023/07/17 10:30:11;;;;;;;;;4.00;4.00;;;;;23.79;45.23;100119.41;5030352;28;8854;-59
2023/07/17 10:32:39;;;;;;;;;4.20;3.20;;;;;24.44;43.95;100114.25;5022320;28;8819;-59
2023/07/17 10:35:07;;;;;;;;;2.60;2.20;;;;;24.75;43.56;100117.25;5012756;28;8890;-58
2023/07/17 10:37:36;;;;;;;;;3.80;3.20;;;;;24.77;43.46;100123.31;5029138;28;8832;-58
2023/07/17 10:40:04;;;;;;;;;3.80;3.80;;;;;24.53;43.79;100122.03;5030146;28;8824;-59
2023/07/17 10:42:32;;;;;;;;;3.20;3.00;;;;;24.21;44.73;100127.38;5024327;28;8838;-59
2023/07/17 10:45:02;;;;;;;;;3.00;2.20;;;;;24.01;44.76;100127.31;5025696;28;8866;-59
2023/07/17 10:47:30;;;;;;;;;2.00;2.00;;;;;24.15;44.62;100123.59;5033687;28;8986;-58
2023/07/17 10:49:59;;;;;;;;;2.60;2.40;;;;;24.88;43.48;100122.72;5033733;28;8982;-57
2023/07/17 10:52:27;;;;;;;;;4.60;3.80;;;;;25.74;42.39;100110.44;5027353;28;8830;-59
2023/07/17 10:54:55;;;;;;;;;3.00;3.00;;;;;25.89;42.22;100119.22;5020383;28;9609;-58
2023/07/17 10:57:23;;;;;;;;;2.80;2.60;;;;;25.56;42.71;100117.63;5033586;28;8924;-57
2023/07/17 10:59:51;;;;;;;;;6.00;5.00;;;;;25.19;43.17;100122.91;5034174;28;9497;-59
2023/07/17 11:02:20;;;;;;;;;2.40;2.00;;;;;24.86;43.69;100122.09;5029569;28;8960;-57
2023/07/17 11:04:48;;;;;;;;;2.80;2.80;;;;;24.88;43.46;100130.88;5016331;28;8827;-59
2023/07/17 11:07:16;;;;;;;;;3.00;2.00;;;;;25.24;43.68;100120.44;5029644;28;8828;-58
2023/07/17 11:09:44;;;;;;;;;3.80;3.00;;;;;25.69;42.22;100115.72;5033139;28;8831;-59
2023/07/17 11:12:12;;;;;;;;;2.20;2.20;;;;;26.22;41.46;100125.41;5031125;28;8834;-58
2023/07/17 11:14:41;;;;;;;;;5.40;3.20;;;;;26.15;41.95;100116.41;5021718;28;8808;-57
2023/07/17 11:17:11;;;;;;;;;2.00;1.80;;;;;25.70;42.42;100113.81;5033551;28;8882;-57
2023/07/17 11:19:39;;;;;;;;;3.00;2.20;;;;;25.12;43.11;100117.47;5029994;28;8836;-59
2023/07/17 11:22:07;;;;;;;;;3.00;3.00;;;;;24.68;43.72;100127.31;5025071;28;8844;-59
2023/07/17 11:24:37;;;;;;;;;3.00;3.00;;;;;24.33;44.38;100125.72;5034131;28;8840;-59
2023/07/17 11:27:05;;;;;;;;;1.20;1.00;;;;;24.04;45.10;100129.63;5034253;28;8832;-59
2023/07/17 11:29:33;;;;;;;;;2.60;2.60;;;;;23.91;45.00;100132.28;5033716;27;9541;-56
2023/07/17 11:32:01;;;;;;;;;2.60;2.20;;;;;23.79;45.36;100139.31;5033285;28;8852;-60
2023/07/17 11:34:29;;;;;;;;;5.60;5.00;;;;;23.66;45.09;100150.13;5033769;28;8925;-59
2023/07/17 11:36:57;;;;;;;;;1.20;1.00;;;;;23.68;45.08;100141.75;5034222;28;8870;-59
2023/07/17 11:39:28;;;;;;;;;3.00;3.00;;;;;24.04;44.57;100137.78;5014037;28;8830;-59